createdAt,value
2023-04-13T00:01:01.707Z,6.71
2023-04-13T00:03:34.180Z,6.69
2023-04-13T00:06:04.770Z,6.72
2023-04-13T00:08:36.496Z,6.73
2023-04-13T00:11:08.445Z,6.67
2023-04-13T00:13:41.796Z,6.65
2023-04-13T00:16:13.178Z,6.63
2023-04-13T00:18:45.818Z,6.66
2023-04-13T00:21:17.499Z,6.61
2023-04-13T00:23:47.956Z,6.64
2023-04-13T00:26:21.233Z,6.68
2023-04-13T00:28:51.535Z,6.68
2023-04-13T00:31:22.381Z,6.68
2023-04-13T00:33:53.297Z,6.66
2023-04-13T00:36:25.153Z,6.63
2023-04-13T00:38:55.234Z,6.62
2023-04-13T00:41:24.289Z,6.63
2023-04-13T00:43:54.365Z,6.66
2023-04-13T00:46:23.854Z,6.65
2023-04-13T00:48:55.792Z,6.63
2023-04-13T00:51:26.268Z,6.63
2023-04-13T00:53:57.460Z,6.68
2023-04-13T00:56:28.486Z,6.67
2023-04-13T00:58:59.978Z,6.68
2023-04-13T01:01:30.407Z,6.63
2023-04-13T01:04:02.038Z,6.60
2023-04-13T01:06:45.176Z,6.61
2023-04-13T01:09:22.982Z,6.58
2023-04-13T01:12:01.509Z,6.59
2023-04-13T01:14:38.567Z,6.57
2023-04-13T01:17:21.775Z,6.62
2023-04-13T01:19:59.247Z,6.59
2023-04-13T01:22:33.153Z,6.63
2023-04-13T01:25:29.245Z,6.63
2023-04-13T01:28:05.999Z,6.62
2023-04-13T01:30:37.688Z,6.67
2023-04-13T01:33:09.360Z,6.70
2023-04-13T01:35:39.204Z,6.72
2023-04-13T01:38:10.603Z,6.75
2023-04-13T01:40:42.179Z,6.73
2023-04-13T01:43:13.037Z,6.76
2023-04-13T01:45:51.501Z,6.74
2023-04-13T01:48:29.934Z,6.73
2023-04-13T01:51:04.973Z,6.75
2023-04-13T01:53:41.849Z,6.74
2023-04-13T01:56:13.753Z,6.76
2023-04-13T01:58:46.246Z,6.75
2023-04-13T02:01:16.821Z,6.76
2023-04-13T02:03:46.735Z,6.75
2023-04-13T02:06:16.780Z,6.78
2023-04-13T02:08:47.015Z,6.78
2023-04-13T02:11:16.451Z,6.72
2023-04-13T02:13:48.729Z,6.66
2023-04-13T02:16:18.467Z,6.67
2023-04-13T02:18:49.901Z,6.71
2023-04-13T02:21:19.524Z,6.75
2023-04-13T02:23:49.497Z,6.74
2023-04-13T02:26:19.326Z,6.77
2023-04-13T02:28:51.395Z,6.78
2023-04-13T02:31:23.820Z,6.80
2023-04-13T02:33:54.338Z,6.79
2023-04-13T02:36:25.514Z,6.74
2023-04-13T02:38:55.491Z,6.78
2023-04-13T02:41:25.606Z,6.81
2023-04-13T02:43:57.252Z,6.80
2023-04-13T02:46:26.010Z,6.85
2023-04-13T02:48:57.045Z,6.88
2023-04-13T02:51:28.099Z,6.86
2023-04-13T02:53:59.348Z,6.90
2023-04-13T02:56:31.016Z,6.91
2023-04-13T02:59:01.894Z,6.95
2023-04-13T03:01:32.504Z,6.96
2023-04-13T03:04:01.630Z,7.00
2023-04-13T03:06:32.028Z,7.00
2023-04-13T03:09:02.442Z,7.04
2023-04-13T03:11:32.487Z,6.98
2023-04-13T03:14:03.439Z,7.02
2023-04-13T03:16:35.428Z,7.08
2023-04-13T03:19:06.104Z,7.12
2023-04-13T03:21:36.160Z,7.13
2023-04-13T03:24:06.811Z,7.15
2023-04-13T03:26:37.490Z,7.11
2023-04-13T03:29:09.690Z,7.14
2023-04-13T03:31:40.372Z,7.13
2023-04-13T03:34:10.382Z,7.09
2023-04-13T03:36:40.357Z,7.12
2023-04-13T03:39:09.193Z,7.18
2023-04-13T03:41:39.886Z,7.13
2023-04-13T03:44:11.305Z,7.16
2023-04-13T03:46:41.518Z,7.17
2023-04-13T03:49:12.805Z,7.23
2023-04-13T03:51:43.982Z,7.20
2023-04-13T03:54:13.539Z,7.25
2023-04-13T03:56:43.843Z,7.23
2023-04-13T03:59:15.525Z,7.22
2023-04-13T04:01:45.565Z,7.23
2023-04-13T04:04:15.935Z,7.27
2023-04-13T04:06:46.174Z,7.25
2023-04-13T04:09:16.658Z,7.22
2023-04-13T04:11:46.394Z,7.26
2023-04-13T04:14:17.266Z,7.31
2023-04-13T04:16:45.788Z,7.29
2023-04-13T04:19:15.649Z,7.26
2023-04-13T04:21:47.101Z,7.27
2023-04-13T04:24:21.311Z,7.31
2023-04-13T04:26:55.064Z,7.36
2023-04-13T04:29:34.639Z,7.36
2023-04-13T04:32:04.456Z,7.39
2023-04-13T04:34:34.181Z,7.38
2023-04-13T04:37:19.704Z,7.38
2023-04-13T04:39:50.059Z,7.36
2023-04-13T04:42:20.375Z,7.36
2023-04-13T04:44:52.019Z,7.42
2023-04-13T04:47:24.566Z,7.37
2023-04-13T04:49:53.977Z,7.32
2023-04-13T04:52:25.148Z,7.38
2023-04-13T04:54:56.229Z,7.39
2023-04-13T04:57:28.450Z,7.39
2023-04-13T05:00:02.310Z,7.41
2023-04-13T05:02:32.831Z,7.41
2023-04-13T05:05:02.675Z,7.40
2023-04-13T05:07:32.681Z,7.37
2023-04-13T05:10:03.234Z,7.40
2023-04-13T05:12:32.669Z,7.36
2023-04-13T05:15:04.801Z,7.35
2023-04-13T05:17:34.981Z,7.33
2023-04-13T05:20:07.290Z,7.33
2023-04-13T05:22:37.665Z,7.33
2023-04-13T05:25:08.293Z,7.34
2023-04-13T05:27:38.817Z,7.21
2023-04-13T05:30:12.808Z,7.26
2023-04-13T05:32:44.191Z,7.26
2023-04-13T05:35:12.839Z,7.19
2023-04-13T05:37:44.650Z,7.18
2023-04-13T05:40:16.126Z,7.15
2023-04-13T05:42:44.672Z,7.17
2023-04-13T05:45:17.472Z,7.17
2023-04-13T05:47:48.020Z,7.17
2023-04-13T05:50:18.561Z,7.19
2023-04-13T05:52:49.220Z,7.24
2023-04-13T05:55:20.764Z,7.28
2023-04-13T05:57:50.956Z,7.25
2023-04-13T06:00:23.796Z,7.26
2023-04-13T06:02:53.514Z,7.22
2023-04-13T06:05:24.313Z,7.23
2023-04-13T06:07:56.282Z,7.28
2023-04-13T06:10:27.526Z,7.27
2023-04-13T06:12:56.926Z,7.25
2023-04-13T06:15:27.856Z,7.26
2023-04-13T06:17:58.377Z,7.26
2023-04-13T06:20:27.949Z,7.27
2023-04-13T06:22:58.150Z,7.25
2023-04-13T06:25:28.643Z,7.28
2023-04-13T06:27:58.042Z,7.31
2023-04-13T06:30:29.061Z,7.33
2023-04-13T06:32:59.362Z,7.36
2023-04-13T06:35:31.083Z,7.39
2023-04-13T06:38:03.142Z,7.39
2023-04-13T06:40:33.877Z,7.36
2023-04-13T06:43:04.678Z,7.36
2023-04-13T06:45:36.780Z,7.39
2023-04-13T06:48:08.894Z,7.35
2023-04-13T06:50:39.248Z,7.37
2023-04-13T06:53:08.158Z,7.41
2023-04-13T06:55:38.129Z,7.42
2023-04-13T06:58:07.922Z,7.43
2023-04-13T07:00:39.553Z,7.43
2023-04-13T07:03:09.905Z,7.48
2023-04-13T07:05:40.701Z,7.45
2023-04-13T07:08:12.195Z,7.45
2023-04-13T07:10:41.709Z,7.51
2023-04-13T07:13:11.945Z,7.47
2023-04-13T07:15:43.403Z,7.50
2023-04-13T07:18:12.912Z,7.46
2023-04-13T07:20:42.766Z,7.50
2023-04-13T07:23:12.284Z,7.60
2023-04-13T07:25:42.357Z,7.59
2023-04-13T07:28:13.069Z,7.59
2023-04-13T07:30:47.314Z,7.55
2023-04-13T07:33:16.975Z,7.56
2023-04-13T07:35:46.359Z,7.57
2023-04-13T07:38:17.142Z,7.53
2023-04-13T07:40:48.573Z,7.62
2023-04-13T07:43:19.815Z,7.54
2023-04-13T07:45:52.724Z,7.55
2023-04-13T07:48:21.543Z,7.65
2023-04-13T07:50:52.860Z,7.59
2023-04-13T07:53:22.368Z,7.62
2023-04-13T07:55:51.232Z,7.67
2023-04-13T07:58:20.092Z,7.68
2023-04-13T08:00:51.118Z,7.67
2023-04-13T08:03:21.232Z,7.71
2023-04-13T08:05:50.665Z,7.73
2023-04-13T08:08:21.398Z,7.76
2023-04-13T08:10:50.984Z,7.75
2023-04-13T08:13:20.314Z,7.82
2023-04-13T08:15:51.130Z,7.87
2023-04-13T08:18:21.653Z,7.92
2023-04-13T08:20:52.273Z,7.94
2023-04-13T08:23:23.204Z,7.91
2023-04-13T08:25:52.570Z,7.92
2023-04-13T08:28:24.718Z,7.90
2023-04-13T08:30:56.005Z,7.96
2023-04-13T08:33:25.264Z,8.02
2023-04-13T08:35:54.999Z,8.02
2023-04-13T08:38:24.014Z,7.96
2023-04-13T08:40:54.639Z,8.02
2023-04-13T08:43:25.597Z,8.02
2023-04-13T08:45:57.626Z,8.10
2023-04-13T08:48:36.217Z,8.20
2023-04-13T08:51:13.050Z,8.25
2023-04-13T08:53:43.678Z,8.25
2023-04-13T08:56:17.293Z,8.18
2023-04-13T08:58:50.650Z,8.28
2023-04-13T09:01:23.051Z,8.30
2023-04-13T09:04:03.002Z,8.31
2023-04-13T09:06:40.475Z,8.35
2023-04-13T09:09:14.973Z,8.40
2023-04-13T09:11:48.430Z,8.48
2023-04-13T09:14:21.332Z,8.56
2023-04-13T09:16:52.079Z,8.55
2023-04-13T09:19:31.764Z,8.56
2023-04-13T09:22:02.668Z,8.57
2023-04-13T09:24:41.844Z,8.54
2023-04-13T09:27:20.967Z,8.62
2023-04-13T09:29:54.489Z,8.61
2023-04-13T09:32:26.736Z,8.58
2023-04-13T09:35:04.651Z,8.62
2023-04-13T09:37:34.283Z,8.56
2023-04-13T09:40:20.722Z,8.56
2023-04-13T09:42:57.774Z,8.45
2023-04-13T09:45:34.533Z,8.47
2023-04-13T09:48:07.079Z,8.55
2023-04-13T09:50:37.146Z,8.64
2023-04-13T09:53:11.233Z,8.69
2023-04-13T09:55:41.236Z,8.75
2023-04-13T09:58:12.048Z,8.78
2023-04-13T10:00:45.288Z,8.81
2023-04-13T10:03:19.127Z,8.89
2023-04-13T10:08:27.327Z,9.02
2023-04-13T10:11:02.627Z,9.09
2023-04-13T10:13:39.218Z,9.16
2023-04-13T10:17:22.881Z,9.26
2023-04-13T10:19:57.490Z,9.28
2023-04-13T10:22:28.463Z,9.29
2023-04-13T10:24:57.459Z,9.30
2023-04-13T10:27:30.235Z,9.29
2023-04-13T10:30:00.915Z,9.30
2023-04-13T10:32:32.697Z,9.35
2023-04-13T10:35:15.793Z,9.38
2023-04-13T10:37:46.659Z,9.40
2023-04-13T10:40:16.897Z,9.47
2023-04-13T10:42:52.961Z,9.49
2023-04-13T10:45:26.728Z,9.54
2023-04-13T10:47:59.076Z,9.58
2023-04-13T10:50:30.676Z,9.67
2023-04-13T10:53:05.554Z,9.77
2023-04-13T10:55:36.028Z,9.80
2023-04-13T10:58:17.015Z,9.87
2023-04-13T11:00:47.310Z,9.95
2023-04-13T11:03:19.379Z,9.98
2023-04-13T11:05:59.197Z,10.00
2023-04-13T11:08:28.296Z,9.93
2023-04-13T11:10:59.974Z,9.95
2023-04-13T11:13:29.724Z,10.02
2023-04-13T11:16:06.690Z,10.01
2023-04-13T11:18:36.705Z,10.01
2023-04-13T11:21:14.735Z,10.09
2023-04-13T11:23:43.896Z,10.13
2023-04-13T11:26:15.284Z,10.07
2023-04-13T11:28:49.071Z,10.05
2023-04-13T11:31:19.274Z,10.01
2023-04-13T11:33:52.145Z,9.97
2023-04-13T11:36:23.988Z,9.99
2023-04-13T11:38:55.478Z,9.91
2023-04-13T11:41:25.032Z,9.68
2023-04-13T11:43:55.279Z,9.72
2023-04-13T11:46:25.766Z,9.71
2023-04-13T11:48:57.122Z,9.68
2023-04-13T11:51:27.491Z,9.69
2023-04-13T11:53:57.538Z,9.70
2023-04-13T11:56:27.142Z,9.74
2023-04-13T11:58:56.256Z,9.77
2023-04-13T12:01:26.606Z,9.74
2023-04-13T12:04:14.509Z,9.79
2023-04-13T12:06:48.866Z,9.80
2023-04-13T12:09:20.814Z,9.82
2023-04-13T12:12:07.897Z,9.83
2023-04-13T12:17:37.698Z,9.86
2023-04-13T12:20:07.318Z,9.87
2023-04-13T12:25:20.623Z,9.91
2023-04-13T12:27:52.680Z,9.97
2023-04-13T12:30:23.990Z,9.99
2023-04-13T12:32:56.702Z,10.10
2023-04-13T12:35:27.363Z,10.08
2023-04-13T12:37:59.185Z,10.14
2023-04-13T12:40:28.111Z,10.18
2023-04-13T12:42:58.926Z,10.27
2023-04-13T12:45:31.731Z,10.37
2023-04-13T12:48:01.151Z,10.42
2023-04-13T12:50:32.539Z,10.42
2023-04-13T12:53:04.375Z,10.52
2023-04-13T12:55:33.661Z,10.52
2023-04-13T12:58:03.923Z,10.53
2023-04-13T13:00:32.973Z,10.55
2023-04-13T13:03:12.903Z,10.51
2023-04-13T13:05:44.869Z,10.49
2023-04-13T13:08:16.246Z,10.52
2023-04-13T13:10:46.360Z,10.48
2023-04-13T13:13:17.179Z,10.48
2023-04-13T13:15:47.555Z,10.42
2023-04-13T13:18:17.235Z,10.45
2023-04-13T13:20:49.820Z,10.46
2023-04-13T13:23:21.148Z,10.56
2023-04-13T13:26:10.587Z,10.66
2023-04-13T13:28:40.494Z,10.74
2023-04-13T13:31:10.269Z,10.77
2023-04-13T13:33:40.130Z,10.86
2023-04-13T13:36:09.395Z,10.93
2023-04-13T13:38:40.714Z,11.04
2023-04-13T13:41:10.986Z,11.13
2023-04-13T13:43:40.437Z,11.23
2023-04-13T13:46:11.132Z,11.39
2023-04-13T13:48:41.184Z,11.62
2023-04-13T13:51:10.507Z,11.93
2023-04-13T13:53:42.422Z,12.08
2023-04-13T13:56:11.529Z,12.16
2023-04-13T13:58:40.462Z,12.33
2023-04-13T14:01:10.321Z,12.33
2023-04-13T14:03:40.187Z,12.40
2023-04-13T14:06:10.412Z,12.41
2023-04-13T14:08:42.287Z,12.35
2023-04-13T14:11:13.264Z,12.39
2023-04-13T14:13:42.802Z,12.43
2023-04-13T14:16:12.345Z,12.37
2023-04-13T14:18:41.881Z,12.35
2023-04-13T14:21:11.147Z,12.33
2023-04-13T14:23:42.573Z,12.23
2023-04-13T14:26:13.515Z,12.19
2023-04-13T14:28:43.949Z,12.03
2023-04-13T14:31:15.181Z,12.10
2023-04-13T14:33:44.249Z,12.20
2023-04-13T14:36:15.768Z,12.29
2023-04-13T14:38:47.174Z,12.26
2023-04-13T14:41:16.917Z,12.39
2023-04-13T14:43:45.522Z,12.49
2023-04-13T14:46:14.555Z,12.57
2023-04-13T14:48:44.440Z,12.73
2023-04-13T14:51:19.078Z,12.87
2023-04-13T14:53:49.356Z,12.98
2023-04-13T14:56:18.867Z,13.01
2023-04-13T14:58:48.855Z,13.06
2023-04-13T15:01:19.735Z,13.13
2023-04-13T15:03:49.150Z,13.23
2023-04-13T15:06:19.519Z,13.16
2023-04-13T15:08:51.621Z,13.18
2023-04-13T15:11:22.031Z,13.26
2023-04-13T15:13:52.035Z,13.30
2023-04-13T15:16:22.757Z,13.27
2023-04-13T15:18:52.393Z,13.22
2023-04-13T15:21:22.410Z,13.14
2023-04-13T15:23:53.347Z,13.14
2023-04-13T15:26:24.912Z,13.10
2023-04-13T15:28:55.514Z,13.14
2023-04-13T15:31:25.486Z,13.23
2023-04-13T15:33:55.588Z,13.27
2023-04-13T15:36:24.828Z,13.29
2023-04-13T15:38:54.948Z,13.42
2023-04-13T15:41:27.259Z,13.37
2023-04-13T15:43:59.632Z,13.39
2023-04-13T15:46:29.432Z,13.34
2023-04-13T15:49:00.013Z,13.25
2023-04-13T15:51:30.024Z,13.10
2023-04-13T15:54:01.086Z,13.09
2023-04-13T15:56:31.051Z,13.13
2023-04-13T15:59:00.637Z,13.10
2023-04-13T16:01:45.164Z,13.13
2023-04-13T16:04:14.536Z,13.09
2023-04-13T16:06:44.509Z,13.09
2023-04-13T16:09:15.301Z,13.07
2023-04-13T16:11:45.448Z,13.08
2023-04-13T16:14:15.914Z,13.07
2023-04-13T16:16:46.645Z,13.02
2023-04-13T16:19:18.223Z,13.02
2023-04-13T16:21:50.966Z,12.99
2023-04-13T16:24:21.360Z,12.94
2023-04-13T16:26:51.890Z,12.90
2023-04-13T16:29:22.544Z,12.83
2023-04-13T16:31:52.981Z,12.75
2023-04-13T16:34:26.110Z,12.69
2023-04-13T16:36:56.776Z,12.70
2023-04-13T16:39:28.182Z,12.66
2023-04-13T16:41:57.527Z,12.66
2023-04-13T16:44:27.437Z,12.60
2023-04-13T16:46:57.218Z,12.55
2023-04-13T16:49:26.349Z,12.53
2023-04-13T16:51:56.030Z,12.54
2023-04-13T16:54:28.057Z,12.49
2023-04-13T16:56:57.662Z,12.50
2023-04-13T16:59:27.505Z,12.43
2023-04-13T17:01:58.105Z,12.38
2023-04-13T17:04:27.631Z,12.26
2023-04-13T17:07:02.244Z,12.21
2023-04-13T17:09:33.683Z,12.19
2023-04-13T17:12:02.510Z,12.17
2023-04-13T17:14:33.604Z,12.03
2023-04-13T17:17:03.622Z,12.10
2023-04-13T17:19:34.311Z,12.14
2023-04-13T17:22:04.297Z,12.16
2023-04-13T17:24:35.394Z,12.19
2023-04-13T17:27:06.978Z,12.22
2023-04-13T17:29:38.523Z,12.25
2023-04-13T17:32:07.457Z,12.22
2023-04-13T17:34:37.776Z,12.22
2023-04-13T17:37:08.136Z,12.21
2023-04-13T17:39:42.804Z,12.22
2023-04-13T17:42:12.745Z,12.24
2023-04-13T17:44:41.664Z,12.23
2023-04-13T17:47:10.902Z,12.23
2023-04-13T17:49:40.942Z,12.19
2023-04-13T17:52:10.081Z,12.14
2023-04-13T17:54:41.073Z,12.06
2023-04-13T17:57:11.502Z,12.03
2023-04-13T17:59:42.054Z,11.98
2023-04-13T18:02:11.099Z,11.88
2023-04-13T18:04:41.429Z,11.88
2023-04-13T18:07:11.039Z,11.79
2023-04-13T18:09:42.272Z,11.68
2023-04-13T18:12:12.925Z,11.54
2023-04-13T18:14:41.344Z,11.45
2023-04-13T18:17:10.837Z,11.36
2023-04-13T18:19:39.908Z,11.27
2023-04-13T18:22:10.190Z,11.15
2023-04-13T18:24:42.059Z,11.01
2023-04-13T18:27:12.589Z,10.89
2023-04-13T18:29:41.008Z,10.78
2023-04-13T18:32:10.058Z,10.68
2023-04-13T18:34:40.645Z,10.64
2023-04-13T18:37:11.500Z,10.61
2023-04-13T18:39:41.423Z,10.60
2023-04-13T18:42:11.067Z,10.59
2023-04-13T18:44:40.537Z,10.51
2023-04-13T18:47:10.195Z,10.42
2023-04-13T18:49:39.677Z,10.40
2023-04-13T18:52:10.385Z,10.33
2023-04-13T18:54:40.998Z,10.29
2023-04-13T18:57:10.010Z,10.23
2023-04-13T18:59:39.235Z,10.19
2023-04-13T19:02:08.375Z,10.10
2023-04-13T19:04:39.993Z,10.03
2023-04-13T19:07:09.876Z,9.87
2023-04-13T19:09:40.566Z,9.75
2023-04-13T19:12:09.987Z,9.66
2023-04-13T19:14:39.182Z,9.52
2023-04-13T19:17:09.131Z,9.49
2023-04-13T19:19:37.989Z,9.49
2023-04-13T19:22:08.054Z,9.46
2023-04-13T19:24:38.073Z,9.48
2023-04-13T19:27:08.335Z,9.44
2023-04-13T19:29:40.381Z,9.39
2023-04-13T19:32:12.499Z,9.38
2023-04-13T19:34:42.688Z,9.36
2023-04-13T19:37:13.425Z,9.26
2023-04-13T19:39:43.251Z,9.20
2023-04-13T19:42:15.183Z,9.20
2023-04-13T19:44:44.197Z,9.16
2023-04-13T19:47:13.447Z,9.15
2023-04-13T19:49:43.931Z,9.15
2023-04-13T19:52:16.926Z,9.14
2023-04-13T19:54:45.817Z,9.09
2023-04-13T19:57:16.761Z,9.01
2023-04-13T19:59:45.715Z,8.98
2023-04-13T20:02:16.077Z,8.97
2023-04-13T20:04:47.861Z,8.89
2023-04-13T20:07:18.354Z,8.86
2023-04-13T20:09:47.750Z,8.72
2023-04-13T20:12:19.260Z,8.66
2023-04-13T20:14:50.026Z,8.55
2023-04-13T20:17:19.005Z,8.41
2023-04-13T20:19:50.474Z,8.45
2023-04-13T20:22:22.434Z,8.42
2023-04-13T20:24:51.487Z,8.31
2023-04-13T20:27:23.405Z,8.22
2023-04-13T20:29:54.019Z,8.20
2023-04-13T20:32:22.728Z,8.18
2023-04-13T20:34:51.866Z,8.15
2023-04-13T20:37:22.970Z,8.14
2023-04-13T20:39:53.254Z,8.15
2023-04-13T20:42:23.574Z,8.05
2023-04-13T20:44:57.687Z,8.02
2023-04-13T20:47:28.501Z,7.95
2023-04-13T20:50:00.048Z,7.90
2023-04-13T20:52:30.555Z,7.87
2023-04-13T20:55:01.191Z,7.83
2023-04-13T20:57:31.833Z,7.78
2023-04-13T21:00:02.368Z,7.80
2023-04-13T21:02:32.399Z,7.67
2023-04-13T21:05:03.763Z,7.67
2023-04-13T21:07:32.401Z,7.66
2023-04-13T21:10:02.508Z,7.63
2023-04-13T21:12:34.526Z,7.62
2023-04-13T21:15:03.442Z,7.59
2023-04-13T21:17:33.227Z,7.51
2023-04-13T21:20:05.270Z,7.44
2023-04-13T21:22:35.510Z,7.44
2023-04-13T21:25:08.774Z,7.45
2023-04-13T21:27:40.054Z,7.44
2023-04-13T21:30:10.909Z,7.27
2023-04-13T21:32:41.944Z,7.22
2023-04-13T21:35:15.748Z,7.21
2023-04-13T21:37:45.196Z,7.16
2023-04-13T21:40:14.617Z,7.13
2023-04-13T21:42:45.811Z,7.05
2023-04-13T21:45:15.975Z,7.02
2023-04-13T21:47:47.753Z,7.03
2023-04-13T21:50:17.477Z,7.03
2023-04-13T21:52:46.846Z,7.02
2023-04-13T21:55:19.019Z,6.96
2023-04-13T21:57:50.544Z,6.97
2023-04-13T22:00:20.546Z,6.96
2023-04-13T22:02:49.605Z,6.93
2023-04-13T22:05:18.658Z,6.87
2023-04-13T22:07:47.013Z,6.84
2023-04-13T22:10:18.080Z,6.80
2023-04-13T22:12:49.424Z,6.74
2023-04-13T22:15:19.877Z,6.74
2023-04-13T22:17:50.034Z,6.66
2023-04-13T22:20:21.460Z,6.66
2023-04-13T22:22:51.878Z,6.66
2023-04-13T22:25:25.774Z,6.51
2023-04-13T22:27:57.305Z,6.27
2023-04-13T22:30:29.549Z,6.31
2023-04-13T22:32:59.485Z,6.35
2023-04-13T22:35:29.590Z,6.28
2023-04-13T22:37:59.311Z,6.26
2023-04-13T22:40:29.211Z,6.31
2023-04-13T22:43:00.039Z,6.25
2023-04-13T22:45:30.146Z,6.30
2023-04-13T22:47:59.479Z,6.22
2023-04-13T22:50:28.940Z,6.21
2023-04-13T22:52:58.895Z,6.22
2023-04-13T22:55:28.368Z,6.19
2023-04-13T22:57:59.755Z,6.07
2023-04-13T23:00:29.807Z,6.09
2023-04-13T23:03:00.469Z,6.07
2023-04-13T23:05:30.677Z,5.78
2023-04-13T23:08:00.221Z,5.77
2023-04-13T23:10:31.644Z,5.82
2023-04-13T23:13:02.744Z,5.81
2023-04-13T23:15:32.196Z,5.82
2023-04-13T23:18:03.164Z,5.87
2023-04-13T23:20:33.988Z,5.86
2023-04-13T23:23:03.439Z,5.79
2023-04-13T23:25:33.315Z,5.79
2023-04-13T23:28:04.613Z,5.79
2023-04-13T23:30:34.478Z,5.74
2023-04-13T23:33:04.522Z,5.61
2023-04-13T23:35:34.643Z,5.63
2023-04-13T23:38:03.880Z,5.57
2023-04-13T23:40:33.514Z,5.61
2023-04-13T23:43:04.322Z,5.50
2023-04-13T23:45:34.531Z,5.53
2023-04-13T23:48:05.641Z,5.42
2023-04-13T23:50:35.641Z,5.43
2023-04-13T23:53:06.758Z,5.39
2023-04-13T23:55:37.284Z,5.38
2023-04-13T23:58:09.282Z,5.35
